sensor_id;sensor_type;location;lat;lon;timestamp;P1;durP1;ratioP1;P2;durP2;ratioP2
3757;SDS011;1894;51.038;13.692;2022-08-21T00:00:25;44.93;;;37.20;;
3757;SDS011;1894;51.038;13.692;2022-08-21T00:03:01;43.87;;;36.90;;
3757;SDS011;1894;51.038;13.692;2022-08-21T00:05:32;36.60;;;32.50;;
3757;SDS011;1894;51.038;13.692;2022-08-21T00:08:03;36.33;;;30.23;;
3757;SDS011;1894;51.038;13.692;2022-08-21T00:10:31;42.83;;;32.77;;
3757;SDS011;1894;51.038;13.692;2022-08-21T00:12:59;58.73;;;43.27;;
3757;SDS011;1894;51.038;13.692;2022-08-21T00:15:28;64.57;;;47.70;;
3757;SDS011;1894;51.038;13.692;2022-08-21T00:17:57;72.13;;;49.90;;
3757;SDS011;1894;51.038;13.692;2022-08-21T00:20:25;72.80;;;49.10;;
3757;SDS011;1894;51.038;13.692;2022-08-21T00:22:52;67.57;;;47.70;;
3757;SDS011;1894;51.038;13.692;2022-08-21T00:25:22;76.20;;;51.07;;
3757;SDS011;1894;51.038;13.692;2022-08-21T00:27:51;74.30;;;50.77;;
3757;SDS011;1894;51.038;13.692;2022-08-21T00:30:20;63.97;;;46.80;;
3757;SDS011;1894;51.038;13.692;2022-08-21T00:32:49;78.23;;;51.37;;
3757;SDS011;1894;51.038;13.692;2022-08-21T00:35:18;62.27;;;43.93;;
3757;SDS011;1894;51.038;13.692;2022-08-21T00:37:48;75.17;;;51.47;;
3757;SDS011;1894;51.038;13.692;2022-08-21T00:40:17;75.63;;;51.17;;
3757;SDS011;1894;51.038;13.692;2022-08-21T00:42:46;67.73;;;51.50;;
3757;SDS011;1894;51.038;13.692;2022-08-21T00:45:19;72.43;;;49.47;;
3757;SDS011;1894;51.038;13.692;2022-08-21T00:47:48;82.17;;;54.70;;
3757;SDS011;1894;51.038;13.692;2022-08-21T00:50:16;67.83;;;49.90;;
3757;SDS011;1894;51.038;13.692;2022-08-21T00:52:47;60.87;;;44.87;;
3757;SDS011;1894;51.038;13.692;2022-08-21T00:55:17;74.17;;;50.97;;
3757;SDS011;1894;51.038;13.692;2022-08-21T00:57:48;79.63;;;55.80;;
3757;SDS011;1894;51.038;13.692;2022-08-21T01:00:18;89.47;;;55.40;;
3757;SDS011;1894;51.038;13.692;2022-08-21T01:02:49;79.47;;;54.37;;
3757;SDS011;1894;51.038;13.692;2022-08-21T01:05:16;91.23;;;58.53;;
3757;SDS011;1894;51.038;13.692;2022-08-21T01:07:43;82.47;;;56.80;;
3757;SDS011;1894;51.038;13.692;2022-08-21T01:10:11;60.17;;;44.40;;
3757;SDS011;1894;51.038;13.692;2022-08-21T01:12:50;78.50;;;54.90;;
3757;SDS011;1894;51.038;13.692;2022-08-21T01:15:21;55.13;;;40.63;;
3757;SDS011;1894;51.038;13.692;2022-08-21T01:17:50;72.70;;;51.50;;
3757;SDS011;1894;51.038;13.692;2022-08-21T01:20:18;87.73;;;56.43;;
3757;SDS011;1894;51.038;13.692;2022-08-21T01:22:45;70.80;;;51.87;;
3757;SDS011;1894;51.038;13.692;2022-08-21T01:25:14;55.17;;;41.87;;
3757;SDS011;1894;51.038;13.692;2022-08-21T01:27:43;49.97;;;37.80;;
3757;SDS011;1894;51.038;13.692;2022-08-21T01:30:16;51.53;;;37.80;;
3757;SDS011;1894;51.038;13.692;2022-08-21T01:32:47;44.77;;;33.13;;
3757;SDS011;1894;51.038;13.692;2022-08-21T01:35:15;33.83;;;25.30;;
3757;SDS011;1894;51.038;13.692;2022-08-21T01:37:43;31.97;;;25.30;;
3757;SDS011;1894;51.038;13.692;2022-08-21T01:40:11;19.73;;;17.63;;
3757;SDS011;1894;51.038;13.692;2022-08-21T01:42:39;17.83;;;15.93;;
3757;SDS011;1894;51.038;13.692;2022-08-21T01:45:07;19.70;;;16.97;;
3757;SDS011;1894;51.038;13.692;2022-08-21T01:47:35;21.63;;;18.60;;
3757;SDS011;1894;51.038;13.692;2022-08-21T01:50:04;20.17;;;16.87;;
3757;SDS011;1894;51.038;13.692;2022-08-21T01:52:33;25.60;;;16.43;;
3757;SDS011;1894;51.038;13.692;2022-08-21T01:55:00;20.70;;;15.60;;
3757;SDS011;1894;51.038;13.692;2022-08-21T01:57:27;18.00;;;15.80;;
3757;SDS011;1894;51.038;13.692;2022-08-21T01:59:54;14.60;;;13.03;;
3757;SDS011;1894;51.038;13.692;2022-08-21T02:02:21;15.67;;;13.97;;
3757;SDS011;1894;51.038;13.692;2022-08-21T02:04:48;16.43;;;14.43;;
3757;SDS011;1894;51.038;13.692;2022-08-21T02:07:15;15.00;;;12.60;;
3757;SDS011;1894;51.038;13.692;2022-08-21T02:09:42;19.60;;;15.10;;
3757;SDS011;1894;51.038;13.692;2022-08-21T02:12:10;14.70;;;13.20;;
3757;SDS011;1894;51.038;13.692;2022-08-21T02:14:38;14.73;;;13.07;;
3757;SDS011;1894;51.038;13.692;2022-08-21T02:17:05;15.83;;;14.23;;
3757;SDS011;1894;51.038;13.692;2022-08-21T02:19:35;14.43;;;12.90;;
3757;SDS011;1894;51.038;13.692;2022-08-21T02:22:07;18.93;;;13.60;;
3757;SDS011;1894;51.038;13.692;2022-08-21T02:24:36;14.70;;;12.67;;
3757;SDS011;1894;51.038;13.692;2022-08-21T02:27:21;16.53;;;13.97;;
3757;SDS011;1894;51.038;13.692;2022-08-21T02:29:52;15.73;;;14.03;;
3757;SDS011;1894;51.038;13.692;2022-08-21T02:32:20;15.33;;;13.30;;
3757;SDS011;1894;51.038;13.692;2022-08-21T02:34:47;16.33;;;14.57;;
3757;SDS011;1894;51.038;13.692;2022-08-21T02:37:15;17.00;;;15.10;;
3757;SDS011;1894;51.038;13.692;2022-08-21T02:39:42;18.67;;;15.30;;
3757;SDS011;1894;51.038;13.692;2022-08-21T02:42:09;18.13;;;15.93;;
3757;SDS011;1894;51.038;13.692;2022-08-21T02:44:36;16.03;;;14.33;;
3757;SDS011;1894;51.038;13.692;2022-08-21T02:47:03;17.67;;;15.87;;
3757;SDS011;1894;51.038;13.692;2022-08-21T02:49:31;17.30;;;15.60;;
3757;SDS011;1894;51.038;13.692;2022-08-21T02:51:58;16.07;;;14.37;;
3757;SDS011;1894;51.038;13.692;2022-08-21T02:54:25;17.70;;;16.00;;
3757;SDS011;1894;51.038;13.692;2022-08-21T02:56:52;17.30;;;15.60;;
3757;SDS011;1894;51.038;13.692;2022-08-21T02:59:19;17.07;;;15.33;;
3757;SDS011;1894;51.038;13.692;2022-08-21T03:01:46;17.20;;;15.40;;
3757;SDS011;1894;51.038;13.692;2022-08-21T03:04:13;17.17;;;15.40;;
3757;SDS011;1894;51.038;13.692;2022-08-21T03:06:40;15.17;;;13.67;;
3757;SDS011;1894;51.038;13.692;2022-08-21T03:09:07;16.07;;;14.47;;
3757;SDS011;1894;51.038;13.692;2022-08-21T03:11:34;15.13;;;13.60;;
3757;SDS011;1894;51.038;13.692;2022-08-21T03:14:02;20.50;;;14.47;;
3757;SDS011;1894;51.038;13.692;2022-08-21T03:16:31;17.10;;;15.30;;
3757;SDS011;1894;51.038;13.692;2022-08-21T03:19:00;18.37;;;15.30;;
3757;SDS011;1894;51.038;13.692;2022-08-21T03:21:29;14.60;;;13.20;;
3757;SDS011;1894;51.038;13.692;2022-08-21T03:23:56;16.20;;;13.93;;
3757;SDS011;1894;51.038;13.692;2022-08-21T03:26:23;19.67;;;15.60;;
3757;SDS011;1894;51.038;13.692;2022-08-21T03:28:53;18.77;;;16.10;;
3757;SDS011;1894;51.038;13.692;2022-08-21T03:31:22;17.37;;;15.07;;
3757;SDS011;1894;51.038;13.692;2022-08-21T03:33:49;18.63;;;16.63;;
3757;SDS011;1894;51.038;13.692;2022-08-21T03:36:17;18.70;;;16.80;;
3757;SDS011;1894;51.038;13.692;2022-08-21T03:38:44;20.47;;;17.93;;
3757;SDS011;1894;51.038;13.692;2022-08-21T03:41:11;20.80;;;18.60;;
3757;SDS011;1894;51.038;13.692;2022-08-21T03:43:38;19.30;;;17.23;;
3757;SDS011;1894;51.038;13.692;2022-08-21T03:46:05;21.87;;;18.40;;
3757;SDS011;1894;51.038;13.692;2022-08-21T03:48:33;12.47;;;11.27;;
3757;SDS011;1894;51.038;13.692;2022-08-21T03:51:01;21.73;;;16.23;;
3757;SDS011;1894;51.038;13.692;2022-08-21T03:53:29;28.37;;;20.87;;
3757;SDS011;1894;51.038;13.692;2022-08-21T03:55:56;23.00;;;19.30;;
3757;SDS011;1894;51.038;13.692;2022-08-21T03:58:25;25.00;;;20.70;;
3757;SDS011;1894;51.038;13.692;2022-08-21T04:00:55;23.03;;;20.10;;
3757;SDS011;1894;51.038;13.692;2022-08-21T04:03:24;23.77;;;20.93;;
3757;SDS011;1894;51.038;13.692;2022-08-21T04:05:52;24.60;;;20.73;;
3757;SDS011;1894;51.038;13.692;2022-08-21T04:08:19;24.10;;;19.87;;
3757;SDS011;1894;51.038;13.692;2022-08-21T04:10:47;27.03;;;20.13;;
3757;SDS011;1894;51.038;13.692;2022-08-21T04:13:16;24.20;;;20.47;;
3757;SDS011;1894;51.038;13.692;2022-08-21T04:15:43;26.03;;;21.37;;
3757;SDS011;1894;51.038;13.692;2022-08-21T04:18:10;27.03;;;20.93;;
3757;SDS011;1894;51.038;13.692;2022-08-21T04:20:37;22.77;;;20.30;;
3757;SDS011;1894;51.038;13.692;2022-08-21T04:23:06;26.13;;;21.37;;
3757;SDS011;1894;51.038;13.692;2022-08-21T04:25:33;26.60;;;20.13;;
3757;SDS011;1894;51.038;13.692;2022-08-21T04:28:00;21.50;;;18.27;;
3757;SDS011;1894;51.038;13.692;2022-08-21T04:30:28;22.33;;;19.93;;
3757;SDS011;1894;51.038;13.692;2022-08-21T04:32:56;22.67;;;20.23;;
3757;SDS011;1894;51.038;13.692;2022-08-21T04:35:25;21.63;;;18.40;;
3757;SDS011;1894;51.038;13.692;2022-08-21T04:37:54;20.17;;;17.90;;
3757;SDS011;1894;51.038;13.692;2022-08-21T04:40:22;21.67;;;19.33;;
3757;SDS011;1894;51.038;13.692;2022-08-21T04:42:53;22.67;;;19.70;;
3757;SDS011;1894;51.038;13.692;2022-08-21T04:45:24;24.00;;;20.00;;
3757;SDS011;1894;51.038;13.692;2022-08-21T04:47:52;27.07;;;24.07;;
3757;SDS011;1894;51.038;13.692;2022-08-21T04:50:22;26.43;;;20.27;;
3757;SDS011;1894;51.038;13.692;2022-08-21T04:53:02;26.57;;;21.40;;
3757;SDS011;1894;51.038;13.692;2022-08-21T04:55:31;26.37;;;21.90;;
3757;SDS011;1894;51.038;13.692;2022-08-21T04:57:58;23.40;;;21.00;;
3757;SDS011;1894;51.038;13.692;2022-08-21T05:00:26;29.47;;;24.27;;
3757;SDS011;1894;51.038;13.692;2022-08-21T05:02:53;26.03;;;23.23;;
3757;SDS011;1894;51.038;13.692;2022-08-21T05:05:26;31.00;;;26.00;;
3757;SDS011;1894;51.038;13.692;2022-08-21T05:07:56;30.37;;;24.67;;
3757;SDS011;1894;51.038;13.692;2022-08-21T05:10:25;29.90;;;22.93;;
3757;SDS011;1894;51.038;13.692;2022-08-21T05:12:54;27.00;;;23.33;;
3757;SDS011;1894;51.038;13.692;2022-08-21T05:15:21;32.20;;;24.10;;
3757;SDS011;1894;51.038;13.692;2022-08-21T05:17:49;29.17;;;25.20;;
3757;SDS011;1894;51.038;13.692;2022-08-21T05:20:20;33.73;;;26.87;;
3757;SDS011;1894;51.038;13.692;2022-08-21T05:22:47;29.73;;;24.70;;
3757;SDS011;1894;51.038;13.692;2022-08-21T05:25:15;29.20;;;25.77;;
3757;SDS011;1894;51.038;13.692;2022-08-21T05:27:47;29.40;;;24.37;;
3757;SDS011;1894;51.038;13.692;2022-08-21T05:30:17;34.97;;;29.93;;
3757;SDS011;1894;51.038;13.692;2022-08-21T05:32:46;32.67;;;27.00;;
3757;SDS011;1894;51.038;13.692;2022-08-21T05:35:14;33.53;;;29.97;;
3757;SDS011;1894;51.038;13.692;2022-08-21T05:37:41;39.27;;;29.97;;
3757;SDS011;1894;51.038;13.692;2022-08-21T05:40:08;32.93;;;27.93;;
3757;SDS011;1894;51.038;13.692;2022-08-21T05:42:48;34.10;;;30.47;;
3757;SDS011;1894;51.038;13.692;2022-08-21T05:45:23;35.13;;;31.43;;
3757;SDS011;1894;51.038;13.692;2022-08-21T05:48:17;39.27;;;30.47;;
3757;SDS011;1894;51.038;13.692;2022-08-21T05:50:47;32.00;;;28.00;;
3757;SDS011;1894;51.038;13.692;2022-08-21T05:53:16;37.20;;;29.17;;
3757;SDS011;1894;51.038;13.692;2022-08-21T05:55:44;37.33;;;28.93;;
3757;SDS011;1894;51.038;13.692;2022-08-21T05:58:16;30.40;;;25.40;;
3757;SDS011;1894;51.038;13.692;2022-08-21T06:00:45;31.40;;;26.20;;
3757;SDS011;1894;51.038;13.692;2022-08-21T06:03:16;30.57;;;27.27;;
3757;SDS011;1894;51.038;13.692;2022-08-21T06:05:52;24.97;;;21.30;;
3757;SDS011;1894;51.038;13.692;2022-08-21T06:08:20;32.50;;;24.97;;
3757;SDS011;1894;51.038;13.692;2022-08-21T06:10:48;26.40;;;22.73;;
3757;SDS011;1894;51.038;13.692;2022-08-21T06:13:16;35.37;;;27.30;;
3757;SDS011;1894;51.038;13.692;2022-08-21T06:15:46;29.03;;;25.73;;
3757;SDS011;1894;51.038;13.692;2022-08-21T06:18:13;34.83;;;25.67;;
3757;SDS011;1894;51.038;13.692;2022-08-21T06:20:40;28.53;;;24.10;;
3757;SDS011;1894;51.038;13.692;2022-08-21T06:23:08;32.80;;;25.27;;
3757;SDS011;1894;51.038;13.692;2022-08-21T06:25:35;28.83;;;24.73;;
3757;SDS011;1894;51.038;13.692;2022-08-21T06:28:06;25.73;;;23.07;;
3757;SDS011;1894;51.038;13.692;2022-08-21T06:30:35;28.60;;;24.80;;
3757;SDS011;1894;51.038;13.692;2022-08-21T06:33:04;24.70;;;21.60;;
3757;SDS011;1894;51.038;13.692;2022-08-21T06:35:32;26.90;;;24.07;;
3757;SDS011;1894;51.038;13.692;2022-08-21T06:37:59;25.03;;;22.13;;
3757;SDS011;1894;51.038;13.692;2022-08-21T06:40:27;26.63;;;21.87;;
3757;SDS011;1894;51.038;13.692;2022-08-21T06:43:05;24.40;;;21.90;;
3757;SDS011;1894;51.038;13.692;2022-08-21T06:45:40;26.17;;;21.97;;
3757;SDS011;1894;51.038;13.692;2022-08-21T06:48:07;23.17;;;20.97;;
3757;SDS011;1894;51.038;13.692;2022-08-21T06:50:34;18.50;;;16.67;;
3757;SDS011;1894;51.038;13.692;2022-08-21T06:53:04;23.30;;;20.90;;
3757;SDS011;1894;51.038;13.692;2022-08-21T06:55:32;22.63;;;20.33;;
3757;SDS011;1894;51.038;13.692;2022-08-21T06:58:00;22.70;;;20.20;;
3757;SDS011;1894;51.038;13.692;2022-08-21T07:00:27;25.37;;;21.60;;
3757;SDS011;1894;51.038;13.692;2022-08-21T07:02:55;22.73;;;20.33;;
3757;SDS011;1894;51.038;13.692;2022-08-21T07:05:25;22.20;;;19.83;;
3757;SDS011;1894;51.038;13.692;2022-08-21T07:07:53;21.90;;;19.47;;
3757;SDS011;1894;51.038;13.692;2022-08-21T07:10:20;21.47;;;19.27;;
3757;SDS011;1894;51.038;13.692;2022-08-21T07:12:50;23.57;;;21.27;;
3757;SDS011;1894;51.038;13.692;2022-08-21T07:15:29;24.13;;;21.63;;
3757;SDS011;1894;51.038;13.692;2022-08-21T07:17:58;25.10;;;22.33;;
3757;SDS011;1894;51.038;13.692;2022-08-21T07:20:28;23.00;;;20.87;;
3757;SDS011;1894;51.038;13.692;2022-08-21T07:22:56;22.23;;;19.60;;
3757;SDS011;1894;51.038;13.692;2022-08-21T07:25:26;22.50;;;20.33;;
3757;SDS011;1894;51.038;13.692;2022-08-21T07:27:53;22.73;;;20.23;;
3757;SDS011;1894;51.038;13.692;2022-08-21T07:30:21;17.40;;;15.70;;
3757;SDS011;1894;51.038;13.692;2022-08-21T07:32:49;22.93;;;20.70;;
3757;SDS011;1894;51.038;13.692;2022-08-21T07:35:16;22.10;;;20.00;;
3757;SDS011;1894;51.038;13.692;2022-08-21T07:37:45;22.03;;;19.93;;
3757;SDS011;1894;51.038;13.692;2022-08-21T07:40:12;26.73;;;22.13;;
3757;SDS011;1894;51.038;13.692;2022-08-21T07:42:40;20.87;;;18.80;;
3757;SDS011;1894;51.038;13.692;2022-08-21T07:45:09;21.33;;;19.33;;
3757;SDS011;1894;51.038;13.692;2022-08-21T07:47:37;22.90;;;20.50;;
3757;SDS011;1894;51.038;13.692;2022-08-21T07:50:08;22.30;;;19.13;;
3757;SDS011;1894;51.038;13.692;2022-08-21T07:52:38;23.23;;;21.03;;
3757;SDS011;1894;51.038;13.692;2022-08-21T07:55:07;26.03;;;20.30;;
3757;SDS011;1894;51.038;13.692;2022-08-21T07:57:36;21.90;;;19.50;;
3757;SDS011;1894;51.038;13.692;2022-08-21T08:00:04;20.53;;;18.43;;
3757;SDS011;1894;51.038;13.692;2022-08-21T08:02:40;21.00;;;18.90;;
3757;SDS011;1894;51.038;13.692;2022-08-21T08:05:08;21.50;;;18.20;;
3757;SDS011;1894;51.038;13.692;2022-08-21T08:07:37;21.73;;;18.77;;
3757;SDS011;1894;51.038;13.692;2022-08-21T08:10:05;20.77;;;18.70;;
3757;SDS011;1894;51.038;13.692;2022-08-21T08:12:34;18.00;;;16.40;;
3757;SDS011;1894;51.038;13.692;2022-08-21T08:15:04;19.47;;;17.00;;
3757;SDS011;1894;51.038;13.692;2022-08-21T08:17:33;19.87;;;17.63;;
3757;SDS011;1894;51.038;13.692;2022-08-21T08:20:00;16.00;;;14.30;;
3757;SDS011;1894;51.038;13.692;2022-08-21T08:22:29;17.77;;;15.57;;
3757;SDS011;1894;51.038;13.692;2022-08-21T08:24:56;19.50;;;17.43;;
3757;SDS011;1894;51.038;13.692;2022-08-21T08:27:23;18.60;;;15.93;;
3757;SDS011;1894;51.038;13.692;2022-08-21T08:29:50;16.53;;;14.90;;
3757;SDS011;1894;51.038;13.692;2022-08-21T08:32:18;18.43;;;16.00;;
3757;SDS011;1894;51.038;13.692;2022-08-21T08:34:46;15.07;;;13.60;;
3757;SDS011;1894;51.038;13.692;2022-08-21T08:37:15;15.80;;;14.13;;
3757;SDS011;1894;51.038;13.692;2022-08-21T08:39:43;14.73;;;13.40;;
3757;SDS011;1894;51.038;13.692;2022-08-21T08:45:04;16.33;;;13.00;;
3757;SDS011;1894;51.038;13.692;2022-08-21T08:47:40;16.40;;;14.67;;
3757;SDS011;1894;51.038;13.692;2022-08-21T08:50:24;15.97;;;12.80;;
3757;SDS011;1894;51.038;13.692;2022-08-21T08:53:11;13.90;;;11.93;;
3757;SDS011;1894;51.038;13.692;2022-08-21T08:55:46;15.83;;;13.33;;
3757;SDS011;1894;51.038;13.692;2022-08-21T08:58:36;13.70;;;12.40;;
3757;SDS011;1894;51.038;13.692;2022-08-21T09:01:12;10.93;;;9.83;;
3757;SDS011;1894;51.038;13.692;2022-08-21T09:03:44;17.53;;;11.73;;
3757;SDS011;1894;51.038;13.692;2022-08-21T09:11:25;15.10;;;9.00;;
3757;SDS011;1894;51.038;13.692;2022-08-21T09:14:17;10.30;;;9.30;;
3757;SDS011;1894;51.038;13.692;2022-08-21T09:17:02;10.87;;;9.17;;
3757;SDS011;1894;51.038;13.692;2022-08-21T09:25:25;11.03;;;8.00;;
3757;SDS011;1894;51.038;13.692;2022-08-21T09:27:57;11.77;;;7.73;;
3757;SDS011;1894;51.038;13.692;2022-08-21T09:30:28;21.10;;;14.87;;
3757;SDS011;1894;51.038;13.692;2022-08-21T09:32:57;7.20;;;6.50;;
3757;SDS011;1894;51.038;13.692;2022-08-21T09:35:24;7.83;;;6.20;;
3757;SDS011;1894;51.038;13.692;2022-08-21T09:37:54;8.07;;;4.63;;
3757;SDS011;1894;51.038;13.692;2022-08-21T09:40:33;7.87;;;5.57;;
3757;SDS011;1894;51.038;13.692;2022-08-21T09:43:10;7.60;;;5.80;;
3757;SDS011;1894;51.038;13.692;2022-08-21T09:45:41;6.83;;;4.73;;
3757;SDS011;1894;51.038;13.692;2022-08-21T09:48:11;8.87;;;4.03;;
3757;SDS011;1894;51.038;13.692;2022-08-21T09:50:40;10.97;;;5.93;;
3757;SDS011;1894;51.038;13.692;2022-08-21T09:53:22;13.40;;;8.47;;
3757;SDS011;1894;51.038;13.692;2022-08-21T09:56:00;11.47;;;4.20;;
3757;SDS011;1894;51.038;13.692;2022-08-21T09:58:50;8.17;;;4.40;;
3757;SDS011;1894;51.038;13.692;2022-08-21T10:01:19;6.93;;;4.87;;
3757;SDS011;1894;51.038;13.692;2022-08-21T10:03:49;12.30;;;5.00;;
3757;SDS011;1894;51.038;13.692;2022-08-21T10:06:29;7.10;;;5.37;;
3757;SDS011;1894;51.038;13.692;2022-08-21T10:09:05;9.37;;;4.33;;
3757;SDS011;1894;51.038;13.692;2022-08-21T10:11:58;7.53;;;4.93;;
3757;SDS011;1894;51.038;13.692;2022-08-21T10:14:43;15.73;;;4.57;;
3757;SDS011;1894;51.038;13.692;2022-08-21T10:17:30;7.07;;;3.63;;
3757;SDS011;1894;51.038;13.692;2022-08-21T10:20:27;6.97;;;3.87;;
3757;SDS011;1894;51.038;13.692;2022-08-21T10:23:12;8.93;;;3.63;;
3757;SDS011;1894;51.038;13.692;2022-08-21T10:25:54;8.00;;;3.40;;
3757;SDS011;1894;51.038;13.692;2022-08-21T10:28:44;6.03;;;3.80;;
3757;SDS011;1894;51.038;13.692;2022-08-21T10:34:27;7.50;;;4.20;;
3757;SDS011;1894;51.038;13.692;2022-08-21T10:37:11;7.73;;;4.53;;
3757;SDS011;1894;51.038;13.692;2022-08-21T10:48:36;10.13;;;3.70;;
3757;SDS011;1894;51.038;13.692;2022-08-21T10:51:20;4.83;;;3.30;;
3757;SDS011;1894;51.038;13.692;2022-08-21T10:56:49;5.63;;;3.90;;
3757;SDS011;1894;51.038;13.692;2022-08-21T10:59:27;5.93;;;3.80;;
3757;SDS011;1894;51.038;13.692;2022-08-21T11:02:17;5.03;;;3.57;;
3757;SDS011;1894;51.038;13.692;2022-08-21T11:10:28;10.43;;;3.60;;
3757;SDS011;1894;51.038;13.692;2022-08-21T11:16:09;10.13;;;3.07;;
3757;SDS011;1894;51.038;13.692;2022-08-21T11:19:07;5.30;;;2.40;;
3757;SDS011;1894;51.038;13.692;2022-08-21T11:21:54;4.30;;;2.07;;
3757;SDS011;1894;51.038;13.692;2022-08-21T11:24:29;6.17;;;2.73;;
3757;SDS011;1894;51.038;13.692;2022-08-21T11:29:34;3.97;;;2.83;;
3757;SDS011;1894;51.038;13.692;2022-08-21T11:40:31;4.80;;;1.83;;
3757;SDS011;1894;51.038;13.692;2022-08-21T11:48:40;5.60;;;1.97;;
3757;SDS011;1894;51.038;13.692;2022-08-21T11:51:22;7.43;;;1.90;;
3757;SDS011;1894;51.038;13.692;2022-08-21T11:56:41;5.03;;;1.90;;
3757;SDS011;1894;51.038;13.692;2022-08-21T11:59:17;6.53;;;2.00;;
3757;SDS011;1894;51.038;13.692;2022-08-21T12:01:50;3.93;;;1.57;;
3757;SDS011;1894;51.038;13.692;2022-08-21T12:07:09;6.60;;;2.33;;
3757;SDS011;1894;51.038;13.692;2022-08-21T12:09:38;6.50;;;1.93;;
3757;SDS011;1894;51.038;13.692;2022-08-21T12:12:10;7.50;;;1.80;;
3757;SDS011;1894;51.038;13.692;2022-08-21T12:15:02;5.77;;;1.70;;
3757;SDS011;1894;51.038;13.692;2022-08-21T12:17:39;5.73;;;1.80;;
3757;SDS011;1894;51.038;13.692;2022-08-21T12:20:23;4.13;;;1.50;;
3757;SDS011;1894;51.038;13.692;2022-08-21T12:23:27;13.20;;;9.80;;
3757;SDS011;1894;51.038;13.692;2022-08-21T12:28:40;6.50;;;2.07;;
3757;SDS011;1894;51.038;13.692;2022-08-21T12:34:16;7.97;;;5.80;;
3757;SDS011;1894;51.038;13.692;2022-08-21T12:36:46;4.97;;;1.60;;
3757;SDS011;1894;51.038;13.692;2022-08-21T12:39:22;5.10;;;1.70;;
3757;SDS011;1894;51.038;13.692;2022-08-21T12:44:35;3.00;;;1.53;;
3757;SDS011;1894;51.038;13.692;2022-08-21T12:49:51;6.77;;;2.23;;
3757;SDS011;1894;51.038;13.692;2022-08-21T12:52:27;5.90;;;2.20;;
3757;SDS011;1894;51.038;13.692;2022-08-21T12:55:14;6.50;;;2.20;;
3757;SDS011;1894;51.038;13.692;2022-08-21T12:57:43;7.10;;;1.90;;
3757;SDS011;1894;51.038;13.692;2022-08-21T13:00:11;8.13;;;2.40;;
3757;SDS011;1894;51.038;13.692;2022-08-21T13:02:46;5.40;;;1.90;;
3757;SDS011;1894;51.038;13.692;2022-08-21T13:05:29;4.20;;;1.40;;
3757;SDS011;1894;51.038;13.692;2022-08-21T13:08:05;4.20;;;1.80;;
3757;SDS011;1894;51.038;13.692;2022-08-21T13:10:36;3.50;;;1.77;;
3757;SDS011;1894;51.038;13.692;2022-08-21T13:13:06;4.67;;;1.93;;
3757;SDS011;1894;51.038;13.692;2022-08-21T13:16:04;6.20;;;2.40;;
3757;SDS011;1894;51.038;13.692;2022-08-21T13:18:34;7.53;;;2.00;;
3757;SDS011;1894;51.038;13.692;2022-08-21T13:21:13;6.37;;;1.57;;
3757;SDS011;1894;51.038;13.692;2022-08-21T13:23:41;5.80;;;1.93;;
3757;SDS011;1894;51.038;13.692;2022-08-21T13:26:21;7.97;;;1.83;;
3757;SDS011;1894;51.038;13.692;2022-08-21T13:28:49;7.83;;;2.47;;
3757;SDS011;1894;51.038;13.692;2022-08-21T13:31:18;4.30;;;1.60;;
3757;SDS011;1894;51.038;13.692;2022-08-21T13:33:54;5.17;;;1.57;;
3757;SDS011;1894;51.038;13.692;2022-08-21T13:36:25;8.97;;;1.70;;
3757;SDS011;1894;51.038;13.692;2022-08-21T13:39:00;8.37;;;2.00;;
3757;SDS011;1894;51.038;13.692;2022-08-21T13:41:34;7.43;;;2.10;;
3757;SDS011;1894;51.038;13.692;2022-08-21T13:44:15;4.17;;;1.90;;
3757;SDS011;1894;51.038;13.692;2022-08-21T13:46:46;6.50;;;1.80;;
3757;SDS011;1894;51.038;13.692;2022-08-21T13:49:16;7.87;;;2.00;;
3757;SDS011;1894;51.038;13.692;2022-08-21T13:51:45;4.13;;;1.80;;
3757;SDS011;1894;51.038;13.692;2022-08-21T13:57:01;3.43;;;1.20;;
3757;SDS011;1894;51.038;13.692;2022-08-21T13:59:32;3.47;;;2.07;;
3757;SDS011;1894;51.038;13.692;2022-08-21T14:02:08;3.53;;;1.60;;
3757;SDS011;1894;51.038;13.692;2022-08-21T14:07:20;4.70;;;1.70;;
3757;SDS011;1894;51.038;13.692;2022-08-21T14:09:55;5.73;;;1.50;;
3757;SDS011;1894;51.038;13.692;2022-08-21T14:12:27;5.97;;;2.70;;
3757;SDS011;1894;51.038;13.692;2022-08-21T14:14:58;2.17;;;1.30;;
3757;SDS011;1894;51.038;13.692;2022-08-21T14:17:34;5.10;;;1.77;;
3757;SDS011;1894;51.038;13.692;2022-08-21T14:20:05;7.50;;;2.00;;
3757;SDS011;1894;51.038;13.692;2022-08-21T14:22:41;3.97;;;1.63;;
3757;SDS011;1894;51.038;13.692;2022-08-21T14:25:26;8.10;;;1.70;;
3757;SDS011;1894;51.038;13.692;2022-08-21T14:27:57;6.43;;;1.87;;
3757;SDS011;1894;51.038;13.692;2022-08-21T14:30:36;4.13;;;1.80;;
3757;SDS011;1894;51.038;13.692;2022-08-21T14:33:10;5.57;;;1.33;;
3757;SDS011;1894;51.038;13.692;2022-08-21T14:35:39;2.70;;;1.47;;
3757;SDS011;1894;51.038;13.692;2022-08-21T14:38:13;4.07;;;1.60;;
3757;SDS011;1894;51.038;13.692;2022-08-21T14:40:50;5.33;;;1.87;;
3757;SDS011;1894;51.038;13.692;2022-08-21T14:43:22;3.60;;;1.50;;
3757;SDS011;1894;51.038;13.692;2022-08-21T14:45:51;5.93;;;1.77;;
3757;SDS011;1894;51.038;13.692;2022-08-21T14:48:18;3.80;;;1.27;;
3757;SDS011;1894;51.038;13.692;2022-08-21T14:50:45;3.50;;;1.90;;
3757;SDS011;1894;51.038;13.692;2022-08-21T14:53:13;3.47;;;1.40;;
3757;SDS011;1894;51.038;13.692;2022-08-21T14:55:40;4.07;;;1.50;;
3757;SDS011;1894;51.038;13.692;2022-08-21T14:58:26;4.50;;;1.60;;
3757;SDS011;1894;51.038;13.692;2022-08-21T15:00:54;3.53;;;1.47;;
3757;SDS011;1894;51.038;13.692;2022-08-21T15:03:22;3.27;;;1.40;;
3757;SDS011;1894;51.038;13.692;2022-08-21T15:05:50;4.87;;;1.20;;
3757;SDS011;1894;51.038;13.692;2022-08-21T15:08:17;4.10;;;1.47;;
3757;SDS011;1894;51.038;13.692;2022-08-21T15:10:45;2.20;;;1.33;;
3757;SDS011;1894;51.038;13.692;2022-08-21T15:13:33;2.40;;;1.40;;
3757;SDS011;1894;51.038;13.692;2022-08-21T15:16:00;6.83;;;1.93;;
3757;SDS011;1894;51.038;13.692;2022-08-21T15:18:28;4.73;;;1.30;;
3757;SDS011;1894;51.038;13.692;2022-08-21T15:20:56;2.57;;;1.50;;
3757;SDS011;1894;51.038;13.692;2022-08-21T15:23:23;3.90;;;1.47;;
3757;SDS011;1894;51.038;13.692;2022-08-21T15:25:51;7.20;;;1.60;;
3757;SDS011;1894;51.038;13.692;2022-08-21T15:28:19;3.00;;;1.43;;
3757;SDS011;1894;51.038;13.692;2022-08-21T15:30:47;5.80;;;2.00;;
3757;SDS011;1894;51.038;13.692;2022-08-21T15:33:15;4.67;;;1.80;;
3757;SDS011;1894;51.038;13.692;2022-08-21T15:35:43;2.13;;;1.50;;
3757;SDS011;1894;51.038;13.692;2022-08-21T15:38:11;2.60;;;1.67;;
3757;SDS011;1894;51.038;13.692;2022-08-21T15:40:39;1.90;;;1.20;;
3757;SDS011;1894;51.038;13.692;2022-08-21T15:45:58;8.03;;;1.37;;
3757;SDS011;1894;51.038;13.692;2022-08-21T15:48:26;6.90;;;1.27;;
3757;SDS011;1894;51.038;13.692;2022-08-21T15:50:53;3.07;;;1.17;;
3757;SDS011;1894;51.038;13.692;2022-08-21T15:53:20;4.70;;;1.83;;
3757;SDS011;1894;51.038;13.692;2022-08-21T15:55:47;3.90;;;1.80;;
3757;SDS011;1894;51.038;13.692;2022-08-21T15:58:15;2.17;;;1.40;;
3757;SDS011;1894;51.038;13.692;2022-08-21T16:00:43;7.57;;;1.40;;
3757;SDS011;1894;51.038;13.692;2022-08-21T16:03:14;9.83;;;2.13;;
3757;SDS011;1894;51.038;13.692;2022-08-21T16:05:43;5.23;;;1.20;;
3757;SDS011;1894;51.038;13.692;2022-08-21T16:08:11;2.50;;;1.40;;
3757;SDS011;1894;51.038;13.692;2022-08-21T16:10:38;6.53;;;1.60;;
3757;SDS011;1894;51.038;13.692;2022-08-21T16:13:07;6.10;;;1.97;;
3757;SDS011;1894;51.038;13.692;2022-08-21T16:15:42;4.30;;;1.30;;
3757;SDS011;1894;51.038;13.692;2022-08-21T16:18:10;4.07;;;1.50;;
3757;SDS011;1894;51.038;13.692;2022-08-21T16:20:37;1.40;;;1.23;;
3757;SDS011;1894;51.038;13.692;2022-08-21T16:23:04;6.13;;;1.53;;
3757;SDS011;1894;51.038;13.692;2022-08-21T16:25:34;4.17;;;1.80;;
3757;SDS011;1894;51.038;13.692;2022-08-21T16:28:05;3.77;;;1.73;;